Time;durP1;ratioP1;P1;durP2;ratioP2;P2;SDS_P1;SDS_P2;PMS_P1;PMS_P2;Temp;Humidity;BMP_temperature;BMP_pressure;BME280_temperature;BME280_humidity;BME280_pressure;Samples;Min_cycle;Max_cycle;Signal;HPM_P1;HPM_P2
2022/08/02 00:01:52;;;;;;;;;;;25.10;66.30;;;;;;5116709;28;20010;-71
2022/08/02 00:04:18;;;;;;;;;;;25.10;66.20;;;;;;5115680;28;19994;-71
2022/08/02 00:06:44;;;;;;;;;;;25.10;66.50;;;;;;5117607;28;19916;-71
2022/08/02 00:09:09;;;;;;;;;;;25.10;66.30;;;;;;5117054;28;20290;-71
2022/08/02 00:11:35;;;;;;;;;;;25.10;66.20;;;;;;5115689;28;20000;-71
2022/08/02 00:14:00;;;;;;;;;;;25.00;66.30;;;;;;5116480;28;20063;-71
2022/08/02 00:16:26;;;;;;;;;;;25.00;66.30;;;;;;5116767;28;20385;-71
2022/08/02 00:18:51;;;;;;;;;;;25.00;66.40;;;;;;5116646;28;19912;-71
2022/08/02 00:21:17;;;;;;;;;;;25.00;66.50;;;;;;5116395;28;19949;-71
2022/08/02 00:23:42;;;;;;;;;;;24.90;66.80;;;;;;5116823;28;19915;-71
2022/08/02 00:26:08;;;;;;;;;;;24.90;66.60;;;;;;5116437;28;19951;-71
2022/08/02 00:28:33;;;;;;;;;;;24.90;66.70;;;;;;5116546;28;19957;-71
2022/08/02 00:30:59;;;;;;;;;;;24.90;66.60;;;;;;5116148;28;20407;-72
2022/08/02 00:33:25;;;;;;;;;;;24.90;66.70;;;;;;5116243;28;19922;-71
2022/08/02 00:35:51;;;;;;;;;;;24.90;66.70;;;;;;5116289;28;20439;-71
2022/08/02 00:38:16;;;;;;;;;;;25.00;66.80;;;;;;5116190;28;19916;-72
2022/08/02 00:40:48;;;;;;;;;;;24.90;66.60;;;;;;5114815;28;19918;-71
2022/08/02 00:43:14;;;;;;;;;;;24.90;66.60;;;;;;5115951;28;19908;-71
2022/08/02 00:45:40;;;;;;;;;;;24.90;66.50;;;;;;5116128;28;19915;-71
2022/08/02 00:48:07;;;;;;;;;;;24.90;66.60;;;;;;5116422;28;20273;-72
2022/08/02 00:50:34;;;;;;;;;;;24.90;66.80;;;;;;5116291;28;19998;-72
2022/08/02 00:52:59;;;;;;;;;;;24.90;66.70;;;;;;5115978;28;20273;-71
2022/08/02 00:55:25;;;;;;;;;;;24.90;66.70;;;;;;5115887;28;19908;-71
2022/08/02 00:57:51;;;;;;;;;;;24.90;66.70;;;;;;5115867;28;20003;-71
2022/08/02 01:00:17;;;;;;;;;;;24.90;66.60;;;;;;5115816;28;19915;-71
2022/08/02 01:02:43;;;;;;;;;;;24.90;66.60;;;;;;5115402;28;20385;-71
2022/08/02 01:05:09;;;;;;;;;;;24.90;66.20;;;;;;5115490;28;20259;-71
2022/08/02 01:07:35;;;;;;;;;;;24.90;66.80;;;;;;5115905;28;20239;-71
2022/08/02 01:10:00;;;;;;;;;;;24.90;67.40;;;;;;5115471;28;19914;-71
2022/08/02 01:12:26;;;;;;;;;;;24.80;67.80;;;;;;5115950;28;19907;-72
2022/08/02 01:14:52;;;;;;;;;;;24.70;66.70;;;;;;5115404;28;19922;-71
2022/08/02 01:17:31;;;;;;;;;;;24.60;66.80;;;;;;5115945;28;19993;-71
2022/08/02 01:20:04;;;;;;;;;;;24.70;66.90;;;;;;5114044;28;19939;-72
2022/08/02 01:22:29;;;;;;;;;;;24.70;66.70;;;;;;5115187;28;19907;-71
2022/08/02 01:25:18;;;;;;;;;;;24.70;66.80;;;;;;5115146;28;19914;-71
2022/08/02 01:27:44;;;;;;;;;;;24.70;67.10;;;;;;5115559;28;20392;-71
2022/08/02 01:30:10;;;;;;;;;;;24.70;66.70;;;;;;5115554;28;19911;-71
2022/08/02 01:32:40;;;;;;;;;;;24.70;66.70;;;;;;5115162;28;19960;-71
2022/08/02 01:35:08;;;;;;;;;;;24.70;67.00;;;;;;5115014;28;20354;-72
2022/08/02 01:37:38;;;;;;;;;;;24.70;67.10;;;;;;5114915;28;19919;-72
2022/08/02 01:40:12;;;;;;;;;;;24.70;67.10;;;;;;5114373;28;20297;-71
2022/08/02 01:42:40;;;;;;;;;;;24.70;67.00;;;;;;5115451;28;20346;-71
2022/08/02 01:45:07;;;;;;;;;;;24.70;67.10;;;;;;5115017;28;20378;-71
2022/08/02 01:47:34;;;;;;;;;;;24.70;67.10;;;;;;5113520;28;19908;-71
2022/08/02 01:50:01;;;;;;;;;;;24.70;67.10;;;;;;5114852;28;19913;-71
2022/08/02 01:52:29;;;;;;;;;;;24.70;67.10;;;;;;5114963;28;19907;-71
2022/08/02 01:55:09;;;;;;;;;;;24.70;67.20;;;;;;5114141;28;20380;-72
2022/08/02 01:57:38;;;;;;;;;;;24.60;67.00;;;;;;5114940;28;20366;-72
2022/08/02 02:00:05;;;;;;;;;;;24.60;67.40;;;;;;5114741;28;19916;-72
2022/08/02 02:02:31;;;;;;;;;;;24.60;67.30;;;;;;5114744;28;19967;-70
2022/08/02 02:04:58;;;;;;;;;;;24.50;67.40;;;;;;5114780;28;20298;-72
2022/08/02 02:07:25;;;;;;;;;;;24.50;67.50;;;;;;5113390;28;19982;-71
2022/08/02 02:09:51;;;;;;;;;;;24.40;68.40;;;;;;5114645;28;19908;-71
2022/08/02 02:12:18;;;;;;;;;;;24.40;67.70;;;;;;5114783;28;19908;-71
2022/08/02 02:14:43;;;;;;;;;;;24.40;67.60;;;;;;5114494;28;19968;-72
2022/08/02 02:17:10;;;;;;;;;;;24.40;67.60;;;;;;5114659;28;19933;-72
2022/08/02 02:19:36;;;;;;;;;;;24.40;67.70;;;;;;5114298;28;20300;-71
2022/08/02 02:22:02;;;;;;;;;;;24.40;67.50;;;;;;5114600;28;19912;-72
2022/08/02 02:24:27;;;;;;;;;;;24.40;67.60;;;;;;5114456;28;19912;-72
2022/08/02 02:26:53;;;;;;;;;;;24.40;67.60;;;;;;5114707;28;20319;-72
2022/08/02 02:29:24;;;;;;;;;;;24.40;67.60;;;;;;5114297;28;19908;-72
2022/08/02 02:31:52;;;;;;;;;;;24.40;67.70;;;;;;5114524;28;19908;-70
2022/08/02 02:34:24;;;;;;;;;;;24.40;67.50;;;;;;5114278;28;19914;-72
2022/08/02 02:36:50;;;;;;;;;;;24.40;67.90;;;;;;5117511;28;19931;-71
2022/08/02 02:39:17;;;;;;;;;;;24.40;67.60;;;;;;5118595;28;19912;-71
2022/08/02 02:41:43;;;;;;;;;;;24.40;67.70;;;;;;5118410;28;19912;-71
2022/08/02 02:44:12;;;;;;;;;;;24.40;67.60;;;;;;5118503;28;19908;-71
2022/08/02 02:46:38;;;;;;;;;;;24.40;67.60;;;;;;5118878;28;19908;-71
2022/08/02 02:49:03;;;;;;;;;;;24.50;67.70;;;;;;5100315;28;20445;-71
2022/08/02 02:51:29;;;;;;;;;;;24.50;67.60;;;;;;5118228;28;19998;-71
2022/08/02 02:53:56;;;;;;;;;;;24.50;67.60;;;;;;5118318;28;19960;-71
2022/08/02 02:56:22;;;;;;;;;;;24.50;67.50;;;;;;5118131;28;19908;-68
2022/08/02 02:58:47;;;;;;;;;;;24.50;67.50;;;;;;5118331;28;19919;-71
2022/08/02 03:01:31;;;;;;;;;;;24.60;67.50;;;;;;5118234;28;19912;-71
2022/08/02 03:04:01;;;;;;;;;;;24.60;67.50;;;;;;5118567;28;19908;-71
2022/08/02 03:06:27;;;;;;;;;;;24.60;67.50;;;;;;5117987;28;19969;-71
2022/08/02 03:08:52;;;;;;;;;;;24.70;67.30;;;;;;5118178;28;19951;-71
2022/08/02 03:11:18;;;;;;;;;;;24.70;67.40;;;;;;5117909;28;19908;-71
2022/08/02 03:13:44;;;;;;;;;;;24.60;68.20;;;;;;5118186;28;19921;-70
2022/08/02 03:16:10;;;;;;;;;;;24.60;67.30;;;;;;5117953;28;19914;-71
2022/08/02 03:18:36;;;;;;;;;;;24.50;67.50;;;;;;5117770;28;19911;-71
2022/08/02 03:21:04;;;;;;;;;;;24.50;67.50;;;;;;5117533;28;19912;-72
2022/08/02 03:23:29;;;;;;;;;;;24.60;67.50;;;;;;5116554;28;20357;-71
2022/08/02 03:25:55;;;;;;;;;;;24.60;67.80;;;;;;5117486;28;19914;-71
2022/08/02 03:28:20;;;;;;;;;;;24.60;67.50;;;;;;5117225;28;20269;-71
2022/08/02 03:30:46;;;;;;;;;;;24.60;67.70;;;;;;5115754;28;20327;-70
2022/08/02 03:33:12;;;;;;;;;;;24.60;67.60;;;;;;5116092;28;19942;-71
2022/08/02 03:35:39;;;;;;;;;;;24.50;67.70;;;;;;5116066;28;19920;-71
2022/08/02 03:38:05;;;;;;;;;;;24.50;67.60;;;;;;5115517;28;19912;-71
2022/08/02 03:40:30;;;;;;;;;;;24.40;67.80;;;;;;5116896;28;19916;-71
2022/08/02 03:42:56;;;;;;;;;;;24.40;67.90;;;;;;5115691;28;20368;-71
2022/08/02 03:45:22;;;;;;;;;;;24.40;68.30;;;;;;5116788;28;20004;-72
2022/08/02 03:47:48;;;;;;;;;;;24.50;68.20;;;;;;5116608;28;20010;-72
2022/08/02 03:50:14;;;;;;;;;;;24.50;68.10;;;;;;5117043;28;19918;-72
2022/08/02 03:52:41;;;;;;;;;;;24.50;67.50;;;;;;5116363;28;19995;-72
2022/08/02 03:55:07;;;;;;;;;;;24.50;68.00;;;;;;5116537;28;19919;-71
2022/08/02 03:57:36;;;;;;;;;;;24.50;67.90;;;;;;5116413;28;19908;-71
2022/08/02 04:00:01;;;;;;;;;;;24.50;67.90;;;;;;5117146;28;19916;-71
2022/08/02 04:02:27;;;;;;;;;;;24.50;68.20;;;;;;5115939;28;19923;-71
2022/08/02 04:04:52;;;;;;;;;;;24.50;68.40;;;;;;5116636;28;19994;-71
2022/08/02 04:07:18;;;;;;;;;;;24.60;68.30;;;;;;5116352;28;19912;-70
2022/08/02 04:09:43;;;;;;;;;;;24.60;68.40;;;;;;5116091;28;19912;-75
2022/08/02 04:12:09;;;;;;;;;;;24.70;68.30;;;;;;5116278;28;19933;-72
2022/08/02 04:14:35;;;;;;;;;;;24.70;68.30;;;;;;5116546;28;19911;-72
2022/08/02 04:17:06;;;;;;;;;;;24.70;68.20;;;;;;5116342;28;19908;-70
2022/08/02 04:19:36;;;;;;;;;;;24.70;68.30;;;;;;5115681;28;19915;-71
2022/08/02 04:22:05;;;;;;;;;;;24.70;68.20;;;;;;5115890;28;20381;-72
2022/08/02 04:24:37;;;;;;;;;;;24.70;68.20;;;;;;5115838;28;20385;-72
2022/08/02 04:27:03;;;;;;;;;;;24.80;68.20;;;;;;5115945;28;19915;-70
2022/08/02 04:29:29;;;;;;;;;;;24.80;68.10;;;;;;5115934;28;19943;-72
2022/08/02 04:31:54;;;;;;;;;;;24.90;68.20;;;;;;5115936;28;19908;-72
2022/08/02 04:34:20;;;;;;;;;;;24.90;68.00;;;;;;5115904;28;19912;-71
2022/08/02 04:36:46;;;;;;;;;;;25.00;68.00;;;;;;5115478;28;19927;-71
2022/08/02 04:39:12;;;;;;;;;;;25.10;67.90;;;;;;5115463;28;20007;-71
2022/08/02 04:41:41;;;;;;;;;;;25.10;68.30;;;;;;5115702;28;20358;-71
2022/08/02 04:44:07;;;;;;;;;;;25.10;67.60;;;;;;5114212;28;20288;-73
2022/08/02 04:46:33;;;;;;;;;;;25.10;67.60;;;;;;5115425;28;19908;-71
2022/08/02 04:48:59;;;;;;;;;;;25.10;67.90;;;;;;5113755;28;20300;-71
2022/08/02 04:51:24;;;;;;;;;;;25.10;67.80;;;;;;5113824;28;19923;-75
2022/08/02 04:53:50;;;;;;;;;;;25.10;68.20;;;;;;5114998;28;20007;-77
2022/08/02 04:56:15;;;;;;;;;;;25.10;67.70;;;;;;5114875;28;19915;-70
2022/08/02 04:58:41;;;;;;;;;;;25.10;67.60;;;;;;5114605;28;19911;-72
2022/08/02 05:01:06;;;;;;;;;;;25.10;68.20;;;;;;5112557;28;19926;-71
2022/08/02 05:03:32;;;;;;;;;;;24.80;67.70;;;;;;5113657;28;19919;-73
2022/08/02 05:05:59;;;;;;;;;;;25.10;67.90;;;;;;5112562;28;20199;-70
2022/08/02 05:08:25;;;;;;;;;;;25.10;68.10;;;;;;5114411;28;19970;-71
2022/08/02 05:10:50;;;;;;;;;;;25.10;68.00;;;;;;5114340;28;19908;-73
2022/08/02 05:13:16;;;;;;;;;;;25.10;67.70;;;;;;5112953;28;19908;-75
2022/08/02 05:15:42;;;;;;;;;;;25.10;67.90;;;;;;5113872;28;19908;-71
2022/08/02 05:18:07;;;;;;;;;;;25.10;67.90;;;;;;5113136;28;19919;-71
2022/08/02 05:20:33;;;;;;;;;;;25.10;68.00;;;;;;5113638;28;20691;-70
2022/08/02 05:22:58;;;;;;;;;;;25.10;68.10;;;;;;5113741;28;20011;-69
2022/08/02 05:25:24;;;;;;;;;;;25.10;67.70;;;;;;5113451;28;19912;-70
2022/08/02 05:27:49;;;;;;;;;;;25.20;67.80;;;;;;5114494;28;19908;-71
2022/08/02 05:30:15;;;;;;;;;;;25.30;67.60;;;;;;5114397;28;19915;-70
2022/08/02 05:32:45;;;;;;;;;;;25.40;67.40;;;;;;5113544;28;19912;-71
2022/08/02 05:35:10;;;;;;;;;;;25.50;67.20;;;;;;5108635;28;19973;-71
2022/08/02 05:37:36;;;;;;;;;;;25.50;67.00;;;;;;5112505;28;20357;-74
2022/08/02 05:40:02;;;;;;;;;;;25.60;67.00;;;;;;5111444;28;19958;-75
2022/08/02 05:42:31;;;;;;;;;;;25.70;66.80;;;;;;5112973;28;19915;-72
2022/08/02 05:44:56;;;;;;;;;;;25.80;66.70;;;;;;5112853;28;19912;-71
2022/08/02 05:47:23;;;;;;;;;;;25.90;66.60;;;;;;5111674;27;19918;-70
2022/08/02 05:49:48;;;;;;;;;;;25.90;66.50;;;;;;5112219;28;19972;-71
2022/08/02 05:52:16;;;;;;;;;;;25.90;66.30;;;;;;5111816;28;20361;-69
2022/08/02 05:54:48;;;;;;;;;;;26.00;66.10;;;;;;5112690;28;20424;-71
2022/08/02 05:57:29;;;;;;;;;;;26.00;66.00;;;;;;5112835;28;20405;-69
2022/08/02 06:00:08;;;;;;;;;;;26.10;65.90;;;;;;5110589;28;19926;-71
2022/08/02 06:02:45;;;;;;;;;;;26.10;65.60;;;;;;5109496;28;20521;-70
2022/08/02 06:05:31;;;;;;;;;;;26.10;65.50;;;;;;5113181;28;19952;-71
2022/08/02 06:07:58;;;;;;;;;;;26.10;65.50;;;;;;5108391;28;19955;-71
2022/08/02 06:10:25;;;;;;;;;;;26.10;65.40;;;;;;5111720;28;20266;-71
2022/08/02 06:12:55;;;;;;;;;;;26.10;65.40;;;;;;5114242;28;19912;-72
2022/08/02 06:15:20;;;;;;;;;;;26.10;65.40;;;;;;5113764;28;19915;-72
2022/08/02 06:17:46;;;;;;;;;;;26.00;65.40;;;;;;5112392;28;19919;-72
2022/08/02 06:20:12;;;;;;;;;;;26.10;65.50;;;;;;5111210;28;20018;-70
2022/08/02 06:22:42;;;;;;;;;;;26.00;65.40;;;;;;5111212;28;19915;-71
2022/08/02 06:25:08;;;;;;;;;;;25.90;65.30;;;;;;5110994;28;19920;-71
2022/08/02 06:27:34;;;;;;;;;;;25.80;65.30;;;;;;5112638;28;19923;-74
2022/08/02 06:30:00;;;;;;;;;;;25.80;65.60;;;;;;5110734;28;20289;-70
2022/08/02 06:32:26;;;;;;;;;;;25.80;65.80;;;;;;5112456;28;20361;-70
2022/08/02 06:34:51;;;;;;;;;;;25.80;65.80;;;;;;5112528;28;19970;-70
2022/08/02 06:37:36;;;;;;;;;;;25.80;65.90;;;;;;5112216;28;19918;-71
2022/08/02 06:40:34;;;;;;;;;;;25.80;66.00;;;;;;5110952;28;19918;-69
2022/08/02 06:43:03;;;;;;;;;;;25.80;65.90;;;;;;5071851;28;20262;-70
2022/08/02 06:45:28;;;;;;;;;;;25.80;66.00;;;;;;5112149;28;19911;-71
2022/08/02 06:47:54;;;;;;;;;;;25.80;66.10;;;;;;5111736;28;19911;-72
2022/08/02 06:50:20;;;;;;;;;;;25.70;66.20;;;;;;5112086;28;19912;-71
2022/08/02 06:52:45;;;;;;;;;;;25.70;66.10;;;;;;5111016;28;19936;-71
2022/08/02 06:55:11;;;;;;;;;;;25.70;66.20;;;;;;5112185;28;20392;-70
2022/08/02 06:57:37;;;;;;;;;;;25.70;66.30;;;;;;5110946;28;19943;-70
2022/08/02 07:00:07;;;;;;;;;;;25.70;66.30;;;;;;5112004;28;19965;-71
2022/08/02 07:02:33;;;;;;;;;;;25.70;66.40;;;;;;5111928;28;19932;-72
2022/08/02 07:04:59;;;;;;;;;;;25.70;66.20;;;;;;5110915;28;20301;-76
2022/08/02 07:07:25;;;;;;;;;;;25.70;66.30;;;;;;5110783;28;19961;-76
2022/08/02 07:09:51;;;;;;;;;;;25.70;66.10;;;;;;5111351;28;20369;-75
2022/08/02 07:12:16;;;;;;;;;;;25.70;66.00;;;;;;5113148;28;19908;-74
2022/08/02 07:14:42;;;;;;;;;;;25.70;66.10;;;;;;5113111;28;19960;-78
2022/08/02 07:17:07;;;;;;;;;;;25.80;66.00;;;;;;5112737;28;19915;-74
2022/08/02 07:19:33;;;;;;;;;;;25.80;65.90;;;;;;5112904;28;20358;-74
2022/08/02 07:21:58;;;;;;;;;;;25.80;65.70;;;;;;5115968;28;19929;-73
2022/08/02 07:24:24;;;;;;;;;;;25.90;65.40;;;;;;5116606;28;20007;-71
2022/08/02 07:26:49;;;;;;;;;;;25.90;65.40;;;;;;5115519;28;19919;-75
2022/08/02 07:29:15;;;;;;;;;;;25.90;65.20;;;;;;5115716;28;19933;-73
2022/08/02 07:31:41;;;;;;;;;;;25.90;65.00;;;;;;5115332;28;19908;-72
2022/08/02 07:34:06;;;;;;;;;;;25.90;64.90;;;;;;5116153;28;19923;-71
2022/08/02 07:36:32;;;;;;;;;;;25.90;64.80;;;;;;5115348;28;19928;-73
2022/08/02 07:38:57;;;;;;;;;;;25.80;64.80;;;;;;5115520;28;19916;-74
2022/08/02 07:41:23;;;;;;;;;;;25.80;65.00;;;;;;5115965;28;20418;-76
2022/08/02 07:43:48;;;;;;;;;;;25.70;65.40;;;;;;5116033;28;19908;-73
2022/08/02 07:46:14;;;;;;;;;;;25.70;65.30;;;;;;5115187;28;19916;-72
2022/08/02 07:48:39;;;;;;;;;;;25.60;65.40;;;;;;5111334;28;20258;-73
2022/08/02 07:51:05;;;;;;;;;;;25.60;65.40;;;;;;5115359;28;20354;-73
2022/08/02 07:53:30;;;;;;;;;;;25.50;65.40;;;;;;5115509;28;19912;-73
2022/08/02 07:55:56;;;;;;;;;;;25.50;65.30;;;;;;5113778;28;19907;-74
2022/08/02 07:58:21;;;;;;;;;;;25.50;65.40;;;;;;5112727;28;20437;-74
2022/08/02 08:00:47;;;;;;;;;;;25.60;65.40;;;;;;5115101;28;19998;-76
2022/08/02 08:03:13;;;;;;;;;;;25.60;65.40;;;;;;5115588;28;19914;-73
2022/08/02 08:05:38;;;;;;;;;;;25.60;65.40;;;;;;5115711;28;19942;-73
2022/08/02 08:08:04;;;;;;;;;;;25.60;65.40;;;;;;5115238;28;19916;-72
2022/08/02 08:10:31;;;;;;;;;;;25.70;65.40;;;;;;5114912;28;20003;-73
2022/08/02 08:12:56;;;;;;;;;;;25.80;65.40;;;;;;5113804;28;20345;-74
2022/08/02 08:15:22;;;;;;;;;;;25.80;65.10;;;;;;5114933;28;19912;-74
2022/08/02 08:17:48;;;;;;;;;;;25.90;65.10;;;;;;5113848;28;19912;-75
2022/08/02 08:20:13;;;;;;;;;;;25.90;64.90;;;;;;5113583;28;19919;-76
2022/08/02 08:22:39;;;;;;;;;;;25.90;64.80;;;;;;5115488;28;19907;-75
2022/08/02 08:25:04;;;;;;;;;;;26.00;64.80;;;;;;5113954;28;20282;-72
2022/08/02 08:27:30;;;;;;;;;;;26.00;64.50;;;;;;5115553;28;19919;-74
2022/08/02 08:29:56;;;;;;;;;;;26.00;64.60;;;;;;5114353;28;19908;-75
2022/08/02 08:32:21;;;;;;;;;;;26.00;64.50;;;;;;5112688;28;20385;-75
2022/08/02 08:34:47;;;;;;;;;;;26.00;64.70;;;;;;5114448;28;19924;-73
2022/08/02 08:37:13;;;;;;;;;;;25.90;64.70;;;;;;5113115;28;20641;-75
2022/08/02 08:39:39;;;;;;;;;;;25.90;64.80;;;;;;5112807;28;19934;-76
2022/08/02 08:42:05;;;;;;;;;;;25.90;64.90;;;;;;5114730;28;20452;-73
2022/08/02 08:44:50;;;;;;;;;;;25.80;65.20;;;;;;5113542;28;19958;-84
2022/08/02 08:47:16;;;;;;;;;;;25.80;65.40;;;;;;5116355;28;19908;-85
2022/08/02 08:49:44;;;;;;;;;;;25.80;65.20;;;;;;5114940;28;19907;-87
2022/08/02 08:52:10;;;;;;;;;;;25.90;65.20;;;;;;5106621;28;19918;-80
2022/08/02 08:54:37;;;;;;;;;;;25.90;65.00;;;;;;5114646;28;19984;-75
2022/08/02 08:57:03;;;;;;;;;;;25.90;65.10;;;;;;5114652;28;19941;-73
2022/08/02 08:59:29;;;;;;;;;;;25.90;65.00;;;;;;5113093;28;19941;-73
2022/08/02 09:01:55;;;;;;;;;;;25.90;64.90;;;;;;5113975;28;19912;-76
2022/08/02 09:04:21;;;;;;;;;;;25.90;65.00;;;;;;5113160;28;20336;-75
2022/08/02 09:06:47;;;;;;;;;;;25.90;64.80;;;;;;5111418;28;19995;-75
2022/08/02 09:09:12;;;;;;;;;;;26.00;64.70;;;;;;5114266;28;19912;-74
2022/08/02 09:11:38;;;;;;;;;;;25.90;64.50;;;;;;5114279;28;19939;-76
2022/08/02 09:14:04;;;;;;;;;;;26.00;64.80;;;;;;5114121;28;19962;-74
2022/08/02 09:16:31;;;;;;;;;;;26.00;64.80;;;;;;5113754;28;19984;-73
2022/08/02 09:18:57;;;;;;;;;;;26.10;64.70;;;;;;5113227;28;19918;-73
2022/08/02 09:21:23;;;;;;;;;;;26.20;64.20;;;;;;5113449;28;20002;-75
2022/08/02 09:23:51;;;;;;;;;;;26.20;64.20;;;;;;5112360;28;19918;-76
2022/08/02 09:26:18;;;;;;;;;;;26.30;64.30;;;;;;5112164;28;19914;-75
2022/08/02 09:28:45;;;;;;;;;;;26.30;64.20;;;;;;5112104;28;19912;-75
2022/08/02 09:31:14;;;;;;;;;;;26.40;64.20;;;;;;5113251;28;19912;-72
2022/08/02 09:33:40;;;;;;;;;;;26.50;64.10;;;;;;5111969;28;19965;-74
2022/08/02 09:36:07;;;;;;;;;;;26.60;63.80;;;;;;5113061;28;19927;-74
2022/08/02 09:38:34;;;;;;;;;;;26.60;63.80;;;;;;5113037;28;19955;-75
2022/08/02 09:41:00;;;;;;;;;;;26.70;63.00;;;;;;5112925;28;19920;-76
2022/08/02 09:43:39;;;;;;;;;;;26.70;63.20;;;;;;5114280;28;19973;-75
2022/08/02 09:46:23;;;;;;;;;;;26.70;63.30;;;;;;5112721;28;19919;-72
2022/08/02 09:48:48;;;;;;;;;;;26.70;63.40;;;;;;5112836;28;20369;-74
2022/08/02 09:51:19;;;;;;;;;;;26.70;63.30;;;;;;5112802;28;19990;-71
2022/08/02 09:53:45;;;;;;;;;;;26.70;63.30;;;;;;5111850;28;19908;-71
2022/08/02 09:56:11;;;;;;;;;;;26.70;63.70;;;;;;5114351;28;19951;-72
2022/08/02 09:58:38;;;;;;;;;;;26.60;63.70;;;;;;5114601;28;20306;-74
2022/08/02 10:01:03;;;;;;;;;;;26.50;63.70;;;;;;5114623;28;19911;-72
2022/08/02 10:03:29;;;;;;;;;;;26.50;64.00;;;;;;5114557;28;20354;-74
2022/08/02 10:05:57;;;;;;;;;;;26.40;64.30;;;;;;5114476;28;19908;-72
2022/08/02 10:08:23;;;;;;;;;;;26.30;64.00;;;;;;5114757;28;20250;-73
2022/08/02 10:10:59;;;;;;;;;;;26.20;64.40;;;;;;5114842;28;19929;-73
2022/08/02 10:13:31;;;;;;;;;;;26.10;64.90;;;;;;5115054;28;19912;-74
2022/08/02 10:15:57;;;;;;;;;;;26.00;64.70;;;;;;5114298;28;19907;-72
2022/08/02 10:18:22;;;;;;;;;;;26.00;65.10;;;;;;5114222;28;20404;-71
2022/08/02 10:20:49;;;;;;;;;;;26.00;64.90;;;;;;5114791;28;19919;-73
2022/08/02 10:23:15;;;;;;;;;;;26.00;64.90;;;;;;5113655;28;20311;-73
2022/08/02 10:25:41;;;;;;;;;;;26.00;64.90;;;;;;5113106;28;20400;-72
2022/08/02 10:28:07;;;;;;;;;;;26.00;64.90;;;;;;5114202;28;19912;-72
2022/08/02 10:30:36;;;;;;;;;;;26.00;65.10;;;;;;5114423;28;20315;-73
2022/08/02 10:33:03;;;;;;;;;;;26.00;65.10;;;;;;5114274;28;19915;-72
2022/08/02 10:35:31;;;;;;;;;;;26.10;65.00;;;;;;5113072;28;20425;-73
2022/08/02 10:38:00;;;;;;;;;;;26.00;64.90;;;;;;5114110;28;19919;-73
2022/08/02 10:40:41;;;;;;;;;;;25.90;65.50;;;;;;5112858;28;20010;-74
2022/08/02 10:43:06;;;;;;;;;;;25.90;65.20;;;;;;5114258;28;20289;-72
2022/08/02 10:45:33;;;;;;;;;;;25.80;65.20;;;;;;5114157;28;19915;-73
2022/08/02 10:47:58;;;;;;;;;;;25.70;65.40;;;;;;5114263;28;19908;-74
2022/08/02 10:50:43;;;;;;;;;;;25.70;65.40;;;;;;5114201;28;19914;-72
2022/08/02 10:53:25;;;;;;;;;;;25.70;65.80;;;;;;5113957;28;19911;-73
2022/08/02 10:55:51;;;;;;;;;;;25.80;65.70;;;;;;5115672;28;19915;-73
2022/08/02 10:58:18;;;;;;;;;;;25.70;65.40;;;;;;5118211;28;19912;-72
2022/08/02 11:00:44;;;;;;;;;;;25.70;65.40;;;;;;5118211;28;19954;-72
2022/08/02 11:03:27;;;;;;;;;;;25.70;65.40;;;;;;5117940;28;19949;-73
2022/08/02 11:06:03;;;;;;;;;;;25.70;65.40;;;;;;5118153;28;20342;-72
2022/08/02 11:08:28;;;;;;;;;;;25.80;65.50;;;;;;5117770;28;19961;-73
2022/08/02 11:11:13;;;;;;;;;;;25.70;65.50;;;;;;5117067;28;19948;-72
2022/08/02 11:13:58;;;;;;;;;;;25.70;65.50;;;;;;5118403;28;19908;-73
2022/08/02 11:16:43;;;;;;;;;;;25.70;65.70;;;;;;5116480;28;19915;-74
2022/08/02 11:19:10;;;;;;;;;;;25.80;66.30;;;;;;5116135;28;20018;-72
2022/08/02 11:21:36;;;;;;;;;;;25.70;65.80;;;;;;5116488;28;19957;-73
2022/08/02 11:24:20;;;;;;;;;;;25.70;66.10;;;;;;5117872;28;19908;-71
2022/08/02 11:26:46;;;;;;;;;;;25.70;66.20;;;;;;5117675;28;19908;-72
2022/08/02 11:29:12;;;;;;;;;;;25.70;66.30;;;;;;5117552;28;20376;-72
2022/08/02 11:31:41;;;;;;;;;;;25.50;66.50;;;;;;5117577;28;19907;-71
2022/08/02 11:34:07;;;;;;;;;;;25.40;66.90;;;;;;5117598;28;20281;-72
2022/08/02 11:36:41;;;;;;;;;;;25.20;67.80;;;;;;5117756;28;19924;-74
2022/08/02 11:39:08;;;;;;;;;;;25.10;68.00;;;;;;5117240;28;19911;-71
2022/08/02 11:41:33;;;;;;;;;;;25.00;67.50;;;;;;5116045;28;20314;-73
2022/08/02 11:43:59;;;;;;;;;;;24.90;67.50;;;;;;5115803;28;19908;-73
2022/08/02 11:46:24;;;;;;;;;;;24.90;67.50;;;;;;5117876;28;19907;-74
2022/08/02 11:48:50;;;;;;;;;;;25.00;67.50;;;;;;5116161;28;19914;-71
2022/08/02 11:51:17;;;;;;;;;;;25.10;67.40;;;;;;5115918;28;19908;-72
2022/08/02 11:53:49;;;;;;;;;;;25.10;67.10;;;;;;5117214;28;19908;-71
2022/08/02 11:56:16;;;;;;;;;;;25.20;67.00;;;;;;5116863;28;19908;-72
2022/08/02 11:58:58;;;;;;;;;;;25.20;66.80;;;;;;5117213;28;19923;-72
2022/08/02 12:01:24;;;;;;;;;;;25.30;67.00;;;;;;5116969;28;19916;-71
2022/08/02 12:03:50;;;;;;;;;;;25.30;66.50;;;;;;5116595;28;20254;-72
2022/08/02 12:06:17;;;;;;;;;;;25.30;66.60;;;;;;5117074;28;20008;-72
2022/08/02 12:08:43;;;;;;;;;;;25.30;66.60;;;;;;5116653;28;20396;-72
2022/08/02 12:11:08;;;;;;;;;;;25.30;66.80;;;;;;5116585;28;19995;-73
2022/08/02 12:13:41;;;;;;;;;;;25.30;66.90;;;;;;5116753;28;19961;-73
2022/08/02 12:21:41;;;;;;;;;;;25.00;67.10;;;;;;5117096;28;20014;-71
2022/08/02 12:24:07;;;;;;;;;;;24.90;68.50;;;;;;5116475;28;19943;-72
2022/08/02 12:26:50;;;;;;;;;;;24.80;68.00;;;;;;5116310;28;20317;-72
2022/08/02 12:29:16;;;;;;;;;;;24.70;68.00;;;;;;5116396;28;19961;-71
2022/08/02 12:31:43;;;;;;;;;;;24.70;68.10;;;;;;5116021;28;20304;-71
2022/08/02 12:34:17;;;;;;;;;;;24.80;68.10;;;;;;5116752;28;19912;-71
2022/08/02 12:37:02;;;;;;;;;;;24.80;68.60;;;;;;5116322;28;19925;-72
2022/08/02 12:39:34;;;;;;;;;;;24.80;68.10;;;;;;5116018;28;19912;-72
2022/08/02 12:42:00;;;;;;;;;;;24.80;67.90;;;;;;5115862;28;19926;-71
2022/08/02 12:44:25;;;;;;;;;;;24.90;68.10;;;;;;5116267;28;19916;-72
2022/08/02 12:47:01;;;;;;;;;;;24.90;67.80;;;;;;5111659;28;19908;-72
2022/08/02 12:49:27;;;;;;;;;;;24.90;67.50;;;;;;5114559;28;19951;-71
2022/08/02 12:51:52;;;;;;;;;;;24.90;68.10;;;;;;5115836;28;19946;-72
2022/08/02 12:54:20;;;;;;;;;;;25.00;67.70;;;;;;5115709;28;19908;-73
2022/08/02 12:56:46;;;;;;;;;;;24.90;67.70;;;;;;5115825;28;19907;-73
2022/08/02 12:59:12;;;;;;;;;;;25.00;67.60;;;;;;5115791;28;19919;-73
2022/08/02 13:01:38;;;;;;;;;;;25.00;67.60;;;;;;5115818;28;19911;-72
2022/08/02 13:04:04;;;;;;;;;;;25.00;67.70;;;;;;5115705;28;20016;-72
2022/08/02 13:06:29;;;;;;;;;;;25.00;68.60;;;;;;5115658;28;20308;-72
2022/08/02 13:08:57;;;;;;;;;;;24.80;68.40;;;;;;5115478;28;19914;-72
2022/08/02 13:11:23;;;;;;;;;;;24.70;68.10;;;;;;5115493;28;19941;-73
2022/08/02 13:13:49;;;;;;;;;;;24.70;68.10;;;;;;5115160;28;19925;-72
2022/08/02 13:16:14;;;;;;;;;;;24.70;68.30;;;;;;5115454;28;19908;-73
2022/08/02 13:18:40;;;;;;;;;;;24.70;68.80;;;;;;5114769;28;19911;-72
2022/08/02 13:21:06;;;;;;;;;;;24.70;69.10;;;;;;5115369;28;19955;-72
2022/08/02 13:23:35;;;;;;;;;;;24.60;70.00;;;;;;5115362;28;20313;-72
2022/08/02 13:26:01;;;;;;;;;;;24.60;68.60;;;;;;5115005;28;20448;-72
2022/08/02 13:28:26;;;;;;;;;;;24.60;68.70;;;;;;5115510;28;19951;-73
2022/08/02 13:30:52;;;;;;;;;;;24.60;68.90;;;;;;5115207;28;19908;-72
2022/08/02 13:33:18;;;;;;;;;;;24.60;69.20;;;;;;5115137;28;20006;-72
2022/08/02 13:35:44;;;;;;;;;;;24.60;68.90;;;;;;5115028;28;19924;-72
2022/08/02 13:38:10;;;;;;;;;;;24.60;68.60;;;;;;5115089;28;20269;-72
2022/08/02 13:41:07;;;;;;;;;;;24.70;68.80;;;;;;5114596;28;19912;-71
2022/08/02 13:43:24;;;;;;;;;;;24.70;69.10;;;;;;5114874;28;19919;-72
2022/08/02 13:45:50;;;;;;;;;;;24.70;68.70;;;;;;5113464;28;19908;-73
2022/08/02 13:48:15;;;;;;;;;;;24.70;69.20;;;;;;5113355;28;19945;-71
2022/08/02 13:50:41;;;;;;;;;;;24.70;68.40;;;;;;5114723;28;19908;-72
2022/08/02 13:53:06;;;;;;;;;;;24.70;68.70;;;;;;5113074;28;19981;-73
2022/08/02 13:55:32;;;;;;;;;;;24.80;68.50;;;;;;5114690;28;19922;-72
2022/08/02 13:57:58;;;;;;;;;;;24.80;68.20;;;;;;5114766;28;19908;-72
2022/08/02 14:00:23;;;;;;;;;;;24.90;68.20;;;;;;5113075;28;20308;-72
2022/08/02 14:02:49;;;;;;;;;;;24.90;68.50;;;;;;5114566;28;19912;-73
2022/08/02 14:05:14;;;;;;;;;;;25.00;68.00;;;;;;5114484;28;20384;-71
2022/08/02 14:07:40;;;;;;;;;;;25.00;68.20;;;;;;5114056;28;19908;-71
2022/08/02 14:10:06;;;;;;;;;;;25.00;68.00;;;;;;5114456;28;20421;-72
2022/08/02 14:12:31;;;;;;;;;;;24.80;68.10;;;;;;5114644;28;20360;-72
2022/08/02 14:14:57;;;;;;;;;;;24.80;68.40;;;;;;5114421;28;19908;-72
2022/08/02 14:17:22;;;;;;;;;;;24.70;68.40;;;;;;5114159;28;19908;-73
2022/08/02 14:19:49;;;;;;;;;;;24.60;68.70;;;;;;5114017;28;19916;-73
2022/08/02 14:22:15;;;;;;;;;;;24.60;68.70;;;;;;5114253;28;19908;-71
2022/08/02 14:24:41;;;;;;;;;;;24.60;68.80;;;;;;5114063;28;19908;-73